createdAt,value
2023-06-10T00:00:07.656Z,97892.88
2023-06-10T00:02:41.073Z,97888.34
2023-06-10T00:05:10.114Z,97889.84
2023-06-10T00:07:39.361Z,97877.88
2023-06-10T00:10:07.932Z,97887.91
2023-06-10T00:12:39.542Z,97880.16
2023-06-10T00:15:08.919Z,97881.72
2023-06-10T00:17:41.035Z,97875.16
2023-06-10T00:20:14.973Z,97879.53
2023-06-10T00:22:47.209Z,97872.88
2023-06-10T00:25:15.389Z,97865.94
2023-06-10T00:27:43.065Z,97869.09
2023-06-10T00:30:11.323Z,97868.75
2023-06-10T00:32:39.381Z,97870.34
2023-06-10T00:35:08.257Z,97876.56
2023-06-10T00:37:37.385Z,97867.38
2023-06-10T00:40:06.734Z,97865.88
2023-06-10T00:42:34.818Z,97860.03
2023-06-10T00:45:02.600Z,97864.34
2023-06-10T00:47:33.234Z,97870.13
2023-06-10T00:50:01.434Z,97869.38
2023-06-10T00:52:32.720Z,97870.50
2023-06-10T00:55:01.172Z,97879.84
2023-06-10T00:57:30.748Z,97867.78
2023-06-10T00:59:59.042Z,97866.59
2023-06-10T01:02:29.160Z,97870.88
2023-06-10T01:05:03.236Z,97870.50
2023-06-10T01:07:58.291Z,97862.84
2023-06-10T01:10:50.786Z,97859.34
2023-06-10T01:13:19.503Z,97859.66
2023-06-10T01:15:47.282Z,97861.22
2023-06-10T01:18:16.625Z,97865.09
2023-06-10T01:20:45.838Z,97862.81
2023-06-10T01:23:13.550Z,97860.09
2023-06-10T01:26:06.482Z,97861.75
2023-06-10T01:28:55.417Z,97861.84
2023-06-10T01:31:35.485Z,97859.06
2023-06-10T01:34:07.813Z,97861.31
2023-06-10T01:36:38.042Z,97866.00
2023-06-10T01:39:07.500Z,97859.78
2023-06-10T01:41:36.889Z,97833.75
2023-06-10T01:44:05.671Z,97852.78
2023-06-10T01:46:33.629Z,97862.09
2023-06-10T01:49:01.538Z,97852.78
2023-06-10T01:51:29.378Z,97850.09
2023-06-10T01:53:57.200Z,97853.63
2023-06-10T01:56:25.119Z,97852.09
2023-06-10T01:58:52.899Z,97847.09
2023-06-10T02:01:20.863Z,97855.22
2023-06-10T02:03:48.697Z,97859.50
2023-06-10T02:06:16.671Z,97851.78
2023-06-10T02:08:44.476Z,97847.53
2023-06-10T02:11:12.259Z,97849.88
2023-06-10T02:13:40.335Z,97852.19
2023-06-10T02:16:08.522Z,97849.88
2023-06-10T02:18:36.531Z,97847.56
2023-06-10T02:21:04.463Z,97844.50
2023-06-10T02:23:32.153Z,97846.06
2023-06-10T02:25:59.855Z,97837.47
2023-06-10T02:28:27.474Z,97842.91
2023-06-10T02:30:55.278Z,97840.16
2023-06-10T02:33:23.406Z,97848.69
2023-06-10T02:35:51.875Z,97839.72
2023-06-10T02:38:19.850Z,97842.03
2023-06-10T02:40:47.582Z,97838.03
2023-06-10T02:43:15.331Z,97826.72
2023-06-10T02:45:46.721Z,97842.22
2023-06-10T02:48:15.292Z,97838.69
2023-06-10T02:50:43.098Z,97839.03
2023-06-10T02:53:30.974Z,97836.16
2023-06-10T02:56:06.389Z,97842.28
2023-06-10T02:58:34.369Z,97850.28
2023-06-10T03:01:03.058Z,97846.16
2023-06-10T03:03:43.302Z,97842.97
2023-06-10T03:06:14.651Z,97840.47
2023-06-10T03:08:43.366Z,97834.00
2023-06-10T03:11:15.652Z,97837.50
2023-06-10T03:13:43.917Z,97835.09
2023-06-10T03:16:14.896Z,97832.69
2023-06-10T03:18:43.509Z,97830.06
2023-06-10T03:21:12.698Z,97835.19
2023-06-10T03:23:42.971Z,97843.66
2023-06-10T03:26:15.782Z,97834.53
2023-06-10T03:28:46.631Z,97824.69
2023-06-10T03:31:14.312Z,97826.09
2023-06-10T03:33:43.164Z,97812.94
2023-06-10T03:36:11.277Z,97827.56
2023-06-10T03:38:39.348Z,97827.03
2023-06-10T03:41:09.812Z,97831.09
2023-06-10T03:43:42.087Z,97822.66
2023-06-10T03:46:10.464Z,97817.56
2023-06-10T03:48:40.275Z,97827.91
2023-06-10T03:51:08.683Z,97815.94
2023-06-10T03:53:36.600Z,97832.50
2023-06-10T03:56:04.573Z,97826.44
2023-06-10T03:58:32.524Z,97831.91
2023-06-10T04:01:00.614Z,97827.84
2023-06-10T04:03:34.825Z,97830.13
2023-06-10T04:06:04.045Z,97825.69
2023-06-10T04:08:32.884Z,97822.91
2023-06-10T04:11:01.883Z,97821.09
2023-06-10T04:13:30.000Z,97824.41
2023-06-10T04:16:00.796Z,97817.03
2023-06-10T04:18:29.073Z,97826.22
2023-06-10T04:21:00.451Z,97824.69
2023-06-10T04:23:28.288Z,97811.97
2023-06-10T04:25:56.157Z,97803.94
2023-06-10T04:28:25.992Z,97812.34
2023-06-10T04:30:55.089Z,97801.06
2023-06-10T04:33:23.177Z,97805.34
2023-06-10T04:35:52.012Z,97810.91
2023-06-10T04:38:22.803Z,97799.84
2023-06-10T04:40:50.660Z,97797.72
2023-06-10T04:43:20.209Z,97795.91
2023-06-10T04:45:48.628Z,97801.47
2023-06-10T04:48:16.854Z,97793.78
2023-06-10T04:50:44.702Z,97800.38
2023-06-10T04:53:12.771Z,97795.28
2023-06-10T04:55:45.390Z,97788.81
2023-06-10T04:58:13.202Z,97789.41
2023-06-10T05:00:41.041Z,97790.63
2023-06-10T05:03:08.939Z,97788.84
2023-06-10T05:05:36.674Z,97778.38
2023-06-10T05:08:06.780Z,97782.56
2023-06-10T05:10:36.421Z,97780.63
2023-06-10T05:13:04.612Z,97773.44
2023-06-10T05:15:32.542Z,97772.28
2023-06-10T05:18:00.336Z,97773.19
2023-06-10T05:20:29.831Z,97778.91
2023-06-10T05:22:57.519Z,97770.28
2023-06-10T05:25:26.990Z,97774.59
2023-06-10T05:27:54.711Z,97759.66
2023-06-10T05:30:22.759Z,97770.03
2023-06-10T05:32:50.508Z,97773.03
2023-06-10T05:35:18.416Z,97763.50
2023-06-10T05:37:46.478Z,97763.09
2023-06-10T05:40:14.304Z,97756.25
2023-06-10T05:42:42.053Z,97752.56
2023-06-10T05:45:10.632Z,97766.91
2023-06-10T05:47:38.696Z,97761.41
2023-06-10T05:50:10.251Z,97764.41
2023-06-10T05:52:38.743Z,97765.78
2023-06-10T05:55:07.404Z,97751.72
2023-06-10T05:57:35.461Z,97755.19
2023-06-10T06:00:03.127Z,97751.28
2023-06-10T06:02:40.482Z,97757.31
2023-06-10T06:05:08.723Z,97754.31
2023-06-10T06:07:36.860Z,97754.81
2023-06-10T06:10:04.809Z,97762.13
2023-06-10T06:12:32.708Z,97767.63
2023-06-10T06:15:00.299Z,97763.53
2023-06-10T06:17:28.206Z,97762.00
2023-06-10T06:19:55.846Z,97763.34
2023-06-10T06:22:23.759Z,97755.72
2023-06-10T06:24:52.396Z,97748.06
2023-06-10T06:27:20.269Z,97753.06
2023-06-10T06:29:48.123Z,97757.00
2023-06-10T06:32:16.408Z,97752.41
2023-06-10T06:34:44.007Z,97752.81
2023-06-10T06:37:11.778Z,97741.59
2023-06-10T06:39:42.865Z,97745.47
2023-06-10T06:42:10.445Z,97737.78
2023-06-10T06:45:01.768Z,97725.78
2023-06-10T06:47:32.399Z,97734.66
2023-06-10T06:50:00.210Z,97739.91
2023-06-10T06:52:27.838Z,97732.59
2023-06-10T06:54:55.534Z,97726.78
2023-06-10T06:57:24.566Z,97727.59
2023-06-10T06:59:52.368Z,97722.34
2023-06-10T07:02:20.563Z,97716.72
2023-06-10T07:04:51.148Z,97721.56
2023-06-10T07:07:18.820Z,97715.97
2023-06-10T07:09:46.449Z,97707.25
2023-06-10T07:12:14.221Z,97703.16
2023-06-10T07:14:41.846Z,97696.69
2023-06-10T07:17:09.930Z,97702.38
2023-06-10T07:19:37.641Z,97688.53
2023-06-10T07:22:05.578Z,97702.94
2023-06-10T07:24:33.211Z,97705.28
2023-06-10T07:27:01.017Z,97700.59
2023-06-10T07:29:28.719Z,97701.97
2023-06-10T07:31:56.451Z,97706.25
2023-06-10T07:34:24.073Z,97700.03
2023-06-10T07:36:51.840Z,97699.19
2023-06-10T07:39:19.550Z,97698.25
2023-06-10T07:41:47.443Z,97687.09
2023-06-10T07:44:15.268Z,97691.16
2023-06-10T07:46:42.888Z,97682.50
2023-06-10T07:49:10.658Z,97684.06
2023-06-10T07:51:38.340Z,97686.25
2023-06-10T07:54:06.120Z,97690.63
2023-06-10T07:56:33.885Z,97673.91
2023-06-10T07:59:01.468Z,97673.16
2023-06-10T08:01:29.192Z,97661.47
2023-06-10T08:03:57.020Z,97675.66
2023-06-10T08:06:24.804Z,97663.25
2023-06-10T08:08:52.549Z,97691.59
2023-06-10T08:11:20.254Z,97666.03
2023-06-10T08:13:47.996Z,97660.69
2023-06-10T08:16:15.779Z,97658.16
2023-06-10T08:18:43.409Z,97655.13
2023-06-10T08:21:11.156Z,97653.91
2023-06-10T08:23:39.054Z,97643.47
2023-06-10T08:26:06.769Z,97644.00
2023-06-10T08:28:34.406Z,97647.66
2023-06-10T08:31:02.320Z,97629.28
2023-06-10T08:33:30.108Z,97623.88
2023-06-10T08:35:57.751Z,97631.63
2023-06-10T08:38:25.294Z,97622.88
2023-06-10T08:41:02.204Z,97640.28
2023-06-10T08:43:41.248Z,97627.84
2023-06-10T08:46:10.990Z,97624.78
2023-06-10T08:48:44.832Z,97598.09
2023-06-10T08:51:13.552Z,97617.28
2023-06-10T08:53:52.282Z,97617.00
2023-06-10T08:56:20.728Z,97610.41
2023-06-10T08:58:49.505Z,97613.97
2023-06-10T09:01:18.279Z,97613.47
2023-06-10T09:03:46.047Z,97609.66
2023-06-10T09:06:14.817Z,97623.22
2023-06-10T09:08:43.674Z,97607.81
2023-06-10T09:11:11.424Z,97603.53
2023-06-10T09:13:39.200Z,97595.94
2023-06-10T09:16:06.890Z,97591.66
2023-06-10T09:18:36.065Z,97585.25
2023-06-10T09:21:03.678Z,97594.63
2023-06-10T09:23:32.350Z,97585.88
2023-06-10T09:26:00.887Z,97590.69
2023-06-10T09:28:28.866Z,97588.75
2023-06-10T09:31:07.153Z,97586.63
2023-06-10T09:33:39.930Z,97587.34
2023-06-10T09:36:07.938Z,97575.56
2023-06-10T09:38:36.468Z,97581.63
2023-06-10T09:41:05.045Z,97576.97
2023-06-10T09:43:47.764Z,97574.47
2023-06-10T09:46:19.905Z,97584.03
2023-06-10T09:48:49.442Z,97562.03
2023-06-10T09:51:20.683Z,97554.41
2023-06-10T09:53:55.309Z,97567.06
2023-06-10T09:56:24.622Z,97556.97
2023-06-10T09:58:55.176Z,97551.69
2023-06-10T10:01:23.502Z,97550.03
2023-06-10T10:03:52.679Z,97548.66
2023-06-10T10:06:21.494Z,97543.50
2023-06-10T10:08:51.280Z,97555.28
2023-06-10T10:11:20.388Z,97557.78
2023-06-10T10:13:50.102Z,97551.38
2023-06-10T10:16:40.079Z,97544.31
2023-06-10T10:19:22.499Z,97541.81
2023-06-10T10:22:12.363Z,97535.94
2023-06-10T10:24:50.953Z,97538.88
2023-06-10T10:27:30.068Z,97539.44
2023-06-10T10:30:00.460Z,97536.69
2023-06-10T10:32:37.635Z,97542.28
2023-06-10T10:35:16.766Z,97523.97
2023-06-10T10:37:45.163Z,97519.56
2023-06-10T10:40:14.086Z,97532.75
2023-06-10T10:42:42.474Z,97523.84
2023-06-10T10:45:11.746Z,97519.38
2023-06-10T10:47:40.833Z,97515.25
2023-06-10T10:50:20.259Z,97524.91
2023-06-10T10:53:02.005Z,97514.16
2023-06-10T10:55:30.478Z,97516.34
2023-06-10T10:58:09.165Z,97515.47
2023-06-10T11:00:39.554Z,97503.88
2023-06-10T11:03:11.420Z,97500.94
2023-06-10T11:05:43.370Z,97502.69
2023-06-10T11:08:11.573Z,97504.66
2023-06-10T11:10:52.534Z,97492.22
2023-06-10T11:13:24.137Z,97507.47
2023-06-10T11:15:52.682Z,97499.19
2023-06-10T11:18:40.714Z,97500.59
2023-06-10T11:21:08.405Z,97482.25
2023-06-10T11:23:39.715Z,97486.53
2023-06-10T11:26:32.677Z,97484.78
2023-06-10T11:29:00.490Z,97490.47
2023-06-10T11:31:35.385Z,97504.16
2023-06-10T11:34:06.163Z,97495.34
2023-06-10T11:36:37.995Z,97484.78
2023-06-10T11:39:07.549Z,97490.81
2023-06-10T11:41:36.588Z,97479.88
2023-06-10T11:44:19.399Z,97491.47
2023-06-10T11:46:50.619Z,97492.75
2023-06-10T11:49:19.596Z,97475.38
2023-06-10T11:51:51.432Z,97474.38
2023-06-10T11:54:19.634Z,97476.88
2023-06-10T11:56:48.083Z,97474.75
2023-06-10T11:59:16.068Z,97479.25
2023-06-10T12:01:45.977Z,97478.84
2023-06-10T12:04:17.184Z,97478.53
2023-06-10T12:06:51.419Z,97479.53
2023-06-10T12:09:28.044Z,97485.56
2023-06-10T12:12:04.318Z,97480.03
2023-06-10T12:15:00.718Z,97500.47
2023-06-10T12:17:35.723Z,97486.06
2023-06-10T12:20:26.102Z,97496.53
2023-06-10T12:22:53.784Z,97488.31
2023-06-10T12:25:28.261Z,97501.19
2023-06-10T12:27:58.734Z,97499.16
2023-06-10T12:30:28.097Z,97507.78
2023-06-10T12:32:59.486Z,97500.56
2023-06-10T12:35:29.036Z,97510.09
2023-06-10T12:38:03.920Z,97508.44
2023-06-10T12:40:33.605Z,97512.28
2023-06-10T12:43:02.617Z,97502.94
2023-06-10T12:45:34.676Z,97496.38
2023-06-10T12:48:10.778Z,97492.06
2023-06-10T12:50:43.623Z,97501.69
2023-06-10T12:53:13.148Z,97503.59
2023-06-10T12:55:41.255Z,97515.16
2023-06-10T12:58:09.024Z,97520.59
2023-06-10T13:00:37.524Z,97513.91
2023-06-10T13:03:07.331Z,97523.63
2023-06-10T13:05:35.370Z,97527.28
2023-06-10T13:08:03.325Z,97533.47
2023-06-10T13:10:31.296Z,97541.41
2023-06-10T13:12:58.983Z,97530.13
2023-06-10T13:15:27.936Z,97534.78
2023-06-10T13:17:55.705Z,97542.03
2023-06-10T13:20:24.133Z,97548.41
2023-06-10T13:22:51.919Z,97542.66
2023-06-10T13:25:19.642Z,97534.13
2023-06-10T13:27:47.330Z,97530.28
2023-06-10T13:30:15.404Z,97529.72
2023-06-10T13:32:43.184Z,97532.34
2023-06-10T13:35:11.261Z,97538.25
2023-06-10T13:37:39.304Z,97534.63
2023-06-10T13:40:09.284Z,97538.66
2023-06-10T13:42:37.639Z,97540.06
2023-06-10T13:45:06.468Z,97542.25
2023-06-10T13:47:34.310Z,97562.69
2023-06-10T13:50:02.063Z,97583.59
2023-06-10T13:52:31.881Z,97597.13
2023-06-10T13:54:59.586Z,97591.31
2023-06-10T13:57:27.307Z,97581.53
2023-06-10T13:59:55.150Z,97583.25
2023-06-10T14:02:22.971Z,97605.53
2023-06-10T14:04:50.556Z,97632.50
2023-06-10T14:07:18.663Z,97646.63
2023-06-10T14:09:46.709Z,97664.28
2023-06-10T14:12:14.383Z,97671.00
2023-06-10T14:14:42.043Z,97678.81
2023-06-10T14:17:09.784Z,97665.34
2023-06-10T14:19:37.468Z,97648.16
2023-06-10T14:22:08.008Z,97654.44
2023-06-10T14:24:40.088Z,97651.50
2023-06-10T14:27:08.197Z,97636.19
2023-06-10T14:29:36.599Z,97636.63
2023-06-10T14:32:06.369Z,97630.19
2023-06-10T14:34:36.292Z,97627.25
2023-06-10T14:37:08.907Z,97623.56
2023-06-10T14:39:37.223Z,97615.44
2023-06-10T14:42:05.269Z,97613.44
2023-06-10T14:44:33.022Z,97613.69
2023-06-10T14:47:00.820Z,97608.03
2023-06-10T14:49:28.508Z,97610.91
2023-06-10T14:51:56.180Z,97615.16
2023-06-10T14:54:23.839Z,97620.81
2023-06-10T14:56:51.644Z,97607.97
2023-06-10T14:59:19.416Z,97623.06
2023-06-10T15:01:47.090Z,97614.34
2023-06-10T15:04:14.861Z,97622.13
2023-06-10T15:06:43.825Z,97608.50
2023-06-10T15:09:11.488Z,97618.88
2023-06-10T15:11:39.449Z,97606.81
2023-06-10T15:14:07.754Z,97615.06
2023-06-10T15:16:35.563Z,97603.91
2023-06-10T15:19:03.375Z,97591.88
2023-06-10T15:21:30.973Z,97585.59
2023-06-10T15:23:58.686Z,97587.31
2023-06-10T15:26:26.845Z,97590.19
2023-06-10T15:28:54.750Z,97596.69
2023-06-10T15:31:22.459Z,97598.38
2023-06-10T15:33:50.173Z,97593.88
2023-06-10T15:36:17.774Z,97589.78
2023-06-10T15:38:45.566Z,97587.69
2023-06-10T15:41:13.369Z,97594.47
2023-06-10T15:43:41.824Z,97598.34
2023-06-10T15:46:09.525Z,97596.31
2023-06-10T15:48:37.345Z,97597.19
2023-06-10T15:51:05.088Z,97591.38
2023-06-10T15:53:32.658Z,97591.09
2023-06-10T15:56:00.465Z,97605.06
2023-06-10T15:58:28.522Z,97596.28
2023-06-10T16:00:56.182Z,97594.94
2023-06-10T16:03:23.974Z,97596.59
2023-06-10T16:05:51.670Z,97588.38
2023-06-10T16:08:19.376Z,97597.63
2023-06-10T16:10:46.985Z,97597.44
2023-06-10T16:13:14.634Z,97592.03
2023-06-10T16:15:42.378Z,97585.41
2023-06-10T16:18:10.125Z,97597.91
2023-06-10T16:20:37.886Z,97587.84
2023-06-10T16:23:06.494Z,97601.38
2023-06-10T16:25:35.436Z,97591.44
2023-06-10T16:28:04.560Z,97602.38
2023-06-10T16:30:34.108Z,97599.09
2023-06-10T16:33:02.188Z,97594.88
2023-06-10T16:35:29.906Z,97587.47
2023-06-10T16:37:58.521Z,97585.75
2023-06-10T16:40:27.316Z,97588.78
2023-06-10T16:42:55.151Z,97586.81
2023-06-10T16:45:23.043Z,97584.31
2023-06-10T16:47:51.250Z,97584.25
2023-06-10T16:50:18.942Z,97579.19
2023-06-10T16:52:46.522Z,97578.16
2023-06-10T16:55:14.306Z,97584.00
2023-06-10T16:57:41.964Z,97581.50
2023-06-10T17:00:10.336Z,97573.81
2023-06-10T17:02:38.293Z,97557.13
2023-06-10T17:05:06.865Z,97574.06
2023-06-10T17:07:35.846Z,97568.22
2023-06-10T17:10:05.160Z,97576.56
2023-06-10T17:12:32.988Z,97575.38
2023-06-10T17:15:00.688Z,97568.69
2023-06-10T17:17:29.262Z,97571.41
2023-06-10T17:19:56.935Z,97578.44
2023-06-10T17:22:24.602Z,97579.81
2023-06-10T17:24:52.236Z,97579.97
2023-06-10T17:27:20.056Z,97582.78
2023-06-10T17:29:48.142Z,97584.41
2023-06-10T17:32:16.294Z,97578.16
2023-06-10T17:34:44.133Z,97574.47
2023-06-10T17:37:11.720Z,97582.69
2023-06-10T17:39:39.431Z,97573.19
2023-06-10T17:42:07.568Z,97569.63
2023-06-10T17:44:35.363Z,97571.13
2023-06-10T17:47:03.879Z,97577.72
2023-06-10T17:49:33.022Z,97581.00
2023-06-10T17:52:01.372Z,97574.72
2023-06-10T17:54:29.206Z,97595.63
2023-06-10T17:56:57.185Z,97596.53
2023-06-10T17:59:24.930Z,97594.06
2023-06-10T18:01:52.740Z,97594.06
2023-06-10T18:04:20.640Z,97588.06
2023-06-10T18:06:48.753Z,97583.13
2023-06-10T18:09:16.470Z,97589.19
2023-06-10T18:11:44.106Z,97581.75
2023-06-10T18:14:11.902Z,97599.63
2023-06-10T18:16:39.639Z,97599.19
2023-06-10T18:19:07.426Z,97611.09
2023-06-10T18:21:35.205Z,97590.91
2023-06-10T18:24:03.111Z,97594.41
2023-06-10T18:26:31.071Z,97585.94
2023-06-10T18:28:58.840Z,97593.03
2023-06-10T18:31:26.578Z,97580.56
2023-06-10T18:33:55.825Z,97576.72
2023-06-10T18:36:23.595Z,97583.81
2023-06-10T18:38:52.052Z,97581.75
2023-06-10T18:41:19.684Z,97589.97
2023-06-10T18:43:47.456Z,97591.53
2023-06-10T18:46:15.277Z,97598.88
2023-06-10T18:48:45.087Z,97596.13
2023-06-10T18:51:12.710Z,97599.97
2023-06-10T18:53:40.354Z,97593.28
2023-06-10T18:56:08.048Z,97601.84
2023-06-10T18:58:38.650Z,97602.28
2023-06-10T19:01:06.521Z,97602.63
2023-06-10T19:03:34.403Z,97595.94
2023-06-10T19:06:02.106Z,97593.13
2023-06-10T19:08:30.079Z,97584.81
2023-06-10T19:10:57.879Z,97584.38
2023-06-10T19:13:28.684Z,97590.91
2023-06-10T19:15:56.640Z,97590.09
2023-06-10T19:18:24.321Z,97572.75
2023-06-10T19:20:52.598Z,97587.47
2023-06-10T19:23:20.684Z,97579.59
2023-06-10T19:25:48.471Z,97574.47
2023-06-10T19:28:16.315Z,97586.19
2023-06-10T19:30:45.037Z,97591.16
2023-06-10T19:33:12.963Z,97593.88
2023-06-10T19:35:42.649Z,97585.31
2023-06-10T19:38:10.546Z,97590.72
2023-06-10T19:40:38.346Z,97590.34
2023-06-10T19:43:06.524Z,97589.91
2023-06-10T19:45:34.151Z,97590.72
2023-06-10T19:48:01.907Z,97589.91
2023-06-10T19:50:29.802Z,97589.16
2023-06-10T19:52:57.505Z,97590.34
2023-06-10T19:55:25.221Z,97580.63
2023-06-10T19:57:56.438Z,97574.47
2023-06-10T20:00:24.321Z,97578.28
2023-06-10T20:02:51.969Z,97576.34
2023-06-10T20:05:19.686Z,97577.09
2023-06-10T20:07:47.573Z,97575.91
2023-06-10T20:10:17.095Z,97579.75
2023-06-10T20:12:44.730Z,97577.78
2023-06-10T20:15:12.686Z,97565.25
2023-06-10T20:17:40.634Z,97567.94
2023-06-10T20:20:09.301Z,97578.44
2023-06-10T20:22:37.228Z,97569.03
2023-06-10T20:25:05.264Z,97572.66
2023-06-10T20:27:33.076Z,97570.16
2023-06-10T20:30:01.073Z,97570.31
2023-06-10T20:32:32.638Z,97573.41
2023-06-10T20:35:00.484Z,97566.81
2023-06-10T20:37:28.529Z,97573.16
2023-06-10T20:39:56.197Z,97564.59
2023-06-10T20:42:23.984Z,97552.63
2023-06-10T20:44:52.217Z,97556.38
2023-06-10T20:47:19.940Z,97556.03
2023-06-10T20:49:48.035Z,97562.16
2023-06-10T20:52:15.886Z,97553.75
2023-06-10T20:54:43.660Z,97558.78
2023-06-10T20:57:11.477Z,97554.06
2023-06-10T20:59:39.126Z,97556.91
2023-06-10T21:02:07.580Z,97556.13
2023-06-10T21:04:35.347Z,97550.41
2023-06-10T21:07:03.167Z,97558.97
2023-06-10T21:09:31.041Z,97560.16
2023-06-10T21:11:58.914Z,97564.19
2023-06-10T21:14:26.935Z,97569.44
2023-06-10T21:16:54.677Z,97572.59
2023-06-10T21:19:22.289Z,97583.13
2023-06-10T21:21:50.178Z,97581.56
2023-06-10T21:24:18.095Z,97574.47
2023-06-10T21:26:46.060Z,97568.31
2023-06-10T21:29:14.199Z,97564.28
2023-06-10T21:31:42.503Z,97564.31
2023-06-10T21:34:10.230Z,97557.63
2023-06-10T21:36:37.844Z,97557.91
2023-06-10T21:39:05.986Z,97565.44
2023-06-10T21:41:34.004Z,97572.44
2023-06-10T21:44:01.731Z,97569.25
2023-06-10T21:46:29.545Z,97572.84
2023-06-10T21:48:57.486Z,97570.66
2023-06-10T21:51:25.278Z,97576.63
2023-06-10T21:53:53.003Z,97571.91
2023-06-10T21:56:20.799Z,97573.28
2023-06-10T21:58:51.498Z,97576.38
2023-06-10T22:01:19.478Z,97596.28
2023-06-10T22:03:47.307Z,97595.09
2023-06-10T22:06:16.013Z,97593.13
2023-06-10T22:08:43.716Z,97600.13
2023-06-10T22:11:11.322Z,97582.59
2023-06-10T22:13:39.062Z,97593.97
2023-06-10T22:16:06.677Z,97597.63
2023-06-10T22:18:34.643Z,97598.31
2023-06-10T22:21:03.281Z,97597.22
2023-06-10T22:23:30.998Z,97585.06
2023-06-10T22:25:58.616Z,97581.16
2023-06-10T22:28:26.282Z,97587.38
2023-06-10T22:30:54.878Z,97575.38
2023-06-10T22:33:22.858Z,97581.16
2023-06-10T22:35:50.687Z,97579.69
2023-06-10T22:38:18.401Z,97584.88
2023-06-10T22:40:46.113Z,97575.47
2023-06-10T22:43:13.858Z,97587.63
2023-06-10T22:45:41.584Z,97587.69
2023-06-10T22:48:09.368Z,97593.31
2023-06-10T22:50:37.585Z,97603.41
2023-06-10T22:53:05.804Z,97609.63
2023-06-10T22:55:34.180Z,97613.16
2023-06-10T22:58:02.010Z,97610.91
2023-06-10T23:00:29.688Z,97615.53
2023-06-10T23:02:57.978Z,97623.75
2023-06-10T23:05:25.958Z,97628.88
2023-06-10T23:07:53.920Z,97628.09
2023-06-10T23:10:21.685Z,97626.19
2023-06-10T23:12:49.476Z,97632.47
2023-06-10T23:15:17.153Z,97639.88
2023-06-10T23:17:46.576Z,97637.28
2023-06-10T23:20:14.452Z,97635.84
2023-06-10T23:22:42.877Z,97641.56
2023-06-10T23:25:10.859Z,97647.91
2023-06-10T23:27:38.966Z,97644.38
2023-06-10T23:30:07.373Z,97654.63
2023-06-10T23:32:35.223Z,97660.09
2023-06-10T23:35:03.006Z,97664.47
2023-06-10T23:37:31.997Z,97676.56
2023-06-10T23:39:59.625Z,97669.13
2023-06-10T23:42:27.301Z,97676.56
2023-06-10T23:44:55.168Z,97687.94
2023-06-10T23:47:23.129Z,97693.47
2023-06-10T23:49:50.841Z,97692.34
2023-06-10T23:52:19.460Z,97690.88
2023-06-10T23:54:47.189Z,97690.59
2023-06-10T23:57:14.960Z,97696.53
2023-06-10T23:59:42.819Z,97696.91
